Fort Dodge Regional Airport
KFOD : now visible

Airfield :











YOU CAN JOIN US ON...

 
LOGIN :

Register | Disclaimer

   EN    FR    IT 

 









Legend :    VFR   Marginal VFR   IFR   Intensive IFR   Very Intensive IFR
Visi :
Ceiling :
>= 8 km
>= 3000ft
5 to 8 km
1000 to 3000 ft
1500m to 5 km
500 to 1000 ft
800 to 1500m
200 to 500 ft
< 800m
< 200 ft
Symbols :   Thunderstorms  Fog  Heavy snow  Heavy precipitations  Wind > 20 kt






- Airport Elevation : 1156 ft
- IATA code : FOD


KFOD - Fort Dodge Regional

CURRENT METAR :
  • 260556Z AUTO 13005KT 10SM CLR 05/02 A3009 RMK AO2 SLP224 T00500017 10056 20022 55010

EXPIRED METARs :
  • 260456Z AUTO 10009KT 10SM CLR 03/02 A3009 RMK AO2 SLP223 T00330017 401170022
  • 260356Z AUTO 10006KT 10SM CLR 03/02 A3012 RMK AO2 SLP235 T00330017

TAF KFOD
Valid from the 26 at 06:00 until the 27 at 06:00 UTC


260520Z 2606/2706 13006KT P6SM SCT250
FM261300 14009G17KT P6SM FEW050
FM270100 14016G27KT P6SM BKN035
KZMP FIR / North America



MET'MAP, your aeronautical weather chart ! - Copyright ORBIFLY December 2007 - Disclaimer

ORBIFLY MET'MAP TEAM :

Programming & Development : Alexandra Zaïnal
Concept & original design : Baudouin d'Aumeries
Assistance for programming : Marc-Olivier Méhu
Technical & hardware support : Manuel Goepfert

Contact : metmap@orbifly.com




SOURCES & CREDITS :

   NOAA       Earth
Advisory